sensor_id;sensor_type;location;lat;lon;timestamp;pressure;altitude;pressure_sealevel;temperature;humidity
8140;BME280;4111;50.972;7.072;2023-02-15T00:01:38;102500.25;;;5.17;80.79
8140;BME280;4111;50.972;7.072;2023-02-15T00:04:06;102490.16;;;5.11;81.01
8140;BME280;4111;50.972;7.072;2023-02-15T00:06:33;102487.13;;;5.14;80.90
8140;BME280;4111;50.972;7.072;2023-02-15T00:09:01;102494.69;;;5.19;80.93
8140;BME280;4111;50.972;7.072;2023-02-15T00:11:27;102490.19;;;5.27;80.81
8140;BME280;4111;50.972;7.072;2023-02-15T00:14:11;102478.72;;;5.25;80.67
8140;BME280;4111;50.972;7.072;2023-02-15T00:16:40;102478.38;;;5.20;80.94
8140;BME280;4111;50.972;7.072;2023-02-15T00:19:07;102477.34;;;5.13;80.90
8140;BME280;4111;50.972;7.072;2023-02-15T00:21:35;102467.59;;;5.20;80.76
8140;BME280;4111;50.972;7.072;2023-02-15T00:24:03;102477.34;;;5.13;80.97
8140;BME280;4111;50.972;7.072;2023-02-15T00:26:30;102477.34;;;5.13;80.86
8140;BME280;4111;50.972;7.072;2023-02-15T00:28:57;102477.34;;;4.96;81.11
8140;BME280;4111;50.972;7.072;2023-02-15T00:31:28;102474.31;;;4.91;81.56
8140;BME280;4111;50.972;7.072;2023-02-15T00:34:14;102476.31;;;4.89;81.71
8140;BME280;4111;50.972;7.072;2023-02-15T00:36:42;102470.94;;;4.89;82.30
8140;BME280;4111;50.972;7.072;2023-02-15T00:39:08;102473.47;;;4.91;81.79
8140;BME280;4111;50.972;7.072;2023-02-15T00:41:35;102467.41;;;4.81;82.14
8140;BME280;4111;50.972;7.072;2023-02-15T00:44:02;102472.28;;;4.77;82.50
8140;BME280;4111;50.972;7.072;2023-02-15T00:46:28;102466.06;;;4.76;82.62
8140;BME280;4111;50.972;7.072;2023-02-15T00:48:55;102463.22;;;4.78;82.62
8140;BME280;4111;50.972;7.072;2023-02-15T00:51:22;102468.91;;;4.75;82.59
8140;BME280;4111;50.972;7.072;2023-02-15T00:53:48;102464.19;;;4.69;82.90
8140;BME280;4111;50.972;7.072;2023-02-15T00:56:15;102469.56;;;4.69;82.90
8140;BME280;4111;50.972;7.072;2023-02-15T00:58:42;102474.28;;;4.67;83.07
8140;BME280;4111;50.972;7.072;2023-02-15T01:01:11;102462.00;;;4.64;83.31
8140;BME280;4111;50.972;7.072;2023-02-15T01:03:38;102471.59;;;4.67;83.27
8140;BME280;4111;50.972;7.072;2023-02-15T01:06:05;102461.50;;;4.69;83.27
8140;BME280;4111;50.972;7.072;2023-02-15T01:08:31;102463.00;;;4.71;83.15
8140;BME280;4111;50.972;7.072;2023-02-15T01:11:09;102459.31;;;4.72;83.13
8140;BME280;4111;50.972;7.072;2023-02-15T01:13:36;102459.50;;;4.79;83.16
8140;BME280;4111;50.972;7.072;2023-02-15T01:16:03;102464.56;;;4.82;82.78
8140;BME280;4111;50.972;7.072;2023-02-15T01:18:31;102462.84;;;4.81;82.60
8140;BME280;4111;50.972;7.072;2023-02-15T01:20:58;102459.84;;;4.76;82.40
8140;BME280;4111;50.972;7.072;2023-02-15T01:23:24;102460.16;;;4.65;82.68
8140;BME280;4111;50.972;7.072;2023-02-15T01:25:50;102453.75;;;4.66;82.68
8140;BME280;4111;50.972;7.072;2023-02-15T01:28:17;102457.78;;;4.62;82.72
8140;BME280;4111;50.972;7.072;2023-02-15T01:30:43;102457.97;;;4.68;82.53
8140;BME280;4111;50.972;7.072;2023-02-15T01:33:10;102452.06;;;4.65;82.45
8140;BME280;4111;50.972;7.072;2023-02-15T01:35:45;102449.38;;;4.56;82.91
8140;BME280;4111;50.972;7.072;2023-02-15T01:38:13;102443.66;;;4.60;83.05
8140;BME280;4111;50.972;7.072;2023-02-15T01:40:40;102437.94;;;4.63;83.25
8140;BME280;4111;50.972;7.072;2023-02-15T01:43:10;102438.09;;;4.53;83.07
8140;BME280;4111;50.972;7.072;2023-02-15T01:45:37;102444.44;;;4.44;83.46
8140;BME280;4111;50.972;7.072;2023-02-15T01:48:11;102442.94;;;4.49;83.41
8140;BME280;4111;50.972;7.072;2023-02-15T01:50:50;102439.44;;;4.57;83.15
8140;BME280;4111;50.972;7.072;2023-02-15T01:53:32;102433.75;;;4.60;83.03
8140;BME280;4111;50.972;7.072;2023-02-15T01:56:07;102444.13;;;4.47;83.37
8140;BME280;4111;50.972;7.072;2023-02-15T01:58:36;102435.38;;;4.36;83.67
8140;BME280;4111;50.972;7.072;2023-02-15T02:01:03;102431.63;;;4.29;83.86
8140;BME280;4111;50.972;7.072;2023-02-15T02:03:42;102425.75;;;4.26;84.10
8140;BME280;4111;50.972;7.072;2023-02-15T02:06:11;102420.53;;;4.32;83.84
8140;BME280;4111;50.972;7.072;2023-02-15T02:08:37;102428.44;;;4.34;83.70
8140;BME280;4111;50.972;7.072;2023-02-15T02:11:10;102423.72;;;4.28;83.91
8140;BME280;4111;50.972;7.072;2023-02-15T02:13:37;102417.00;;;4.24;84.11
8140;BME280;4111;50.972;7.072;2023-02-15T02:21:20;102419.00;;;4.22;83.93
8140;BME280;4111;50.972;7.072;2023-02-15T02:26:41;102409.94;;;4.23;83.65
8140;BME280;4111;50.972;7.072;2023-02-15T02:29:46;102411.19;;;4.02;84.12
8140;BME280;4111;50.972;7.072;2023-02-15T02:32:28;102406.16;;;3.99;84.39
8140;BME280;4111;50.972;7.072;2023-02-15T02:40:52;102394.31;;;3.75;84.86
8140;BME280;4111;50.972;7.072;2023-02-15T02:43:29;102383.50;;;3.67;85.09
8140;BME280;4111;50.972;7.072;2023-02-15T02:46:02;102386.47;;;3.56;85.50
8140;BME280;4111;50.972;7.072;2023-02-15T02:48:33;102389.44;;;3.45;85.79
8140;BME280;4111;50.972;7.072;2023-02-15T02:51:00;102389.13;;;3.48;85.95
8140;BME280;4111;50.972;7.072;2023-02-15T02:53:28;102380.69;;;3.43;85.70
8140;BME280;4111;50.972;7.072;2023-02-15T02:55:59;102374.63;;;3.41;86.16
8140;BME280;4111;50.972;7.072;2023-02-15T02:58:36;102384.06;;;3.45;85.68
8140;BME280;4111;50.972;7.072;2023-02-15T03:01:13;102371.31;;;3.47;85.69
8140;BME280;4111;50.972;7.072;2023-02-15T03:03:44;102370.63;;;3.45;86.22
8140;BME280;4111;50.972;7.072;2023-02-15T03:06:29;102366.72;;;3.39;85.97
8140;BME280;4111;50.972;7.072;2023-02-15T03:09:06;102364.69;;;3.33;85.58
8140;BME280;4111;50.972;7.072;2023-02-15T03:11:42;102355.84;;;3.41;85.90
8140;BME280;4111;50.972;7.072;2023-02-15T03:14:10;102352.47;;;3.38;85.68
8140;BME280;4111;50.972;7.072;2023-02-15T03:16:40;102364.28;;;3.46;85.35
8140;BME280;4111;50.972;7.072;2023-02-15T03:19:24;102355.34;;;3.45;85.48
8140;BME280;4111;50.972;7.072;2023-02-15T03:22:23;102357.53;;;3.42;85.50
8140;BME280;4111;50.972;7.072;2023-02-15T03:25:13;102354.47;;;3.36;85.72
8140;BME280;4111;50.972;7.072;2023-02-15T03:28:03;102344.91;;;3.34;86.08
8140;BME280;4111;50.972;7.072;2023-02-15T03:30:32;102349.78;;;3.38;86.03
8140;BME280;4111;50.972;7.072;2023-02-15T03:33:00;102349.16;;;3.45;85.95
8140;BME280;4111;50.972;7.072;2023-02-15T03:35:36;102355.16;;;3.38;86.10
8140;BME280;4111;50.972;7.072;2023-02-15T03:38:07;102354.16;;;3.40;86.56
8140;BME280;4111;50.972;7.072;2023-02-15T03:40:40;102347.06;;;3.30;86.46
8140;BME280;4111;50.972;7.072;2023-02-15T03:45:57;102343.78;;;3.45;86.66
8140;BME280;4111;50.972;7.072;2023-02-15T03:48:29;102337.72;;;3.43;86.17
8140;BME280;4111;50.972;7.072;2023-02-15T03:51:04;102346.09;;;3.40;86.22
8140;BME280;4111;50.972;7.072;2023-02-15T03:53:50;102346.78;;;3.42;86.57
8140;BME280;4111;50.972;7.072;2023-02-15T03:56:17;102344.72;;;3.35;86.38
8140;BME280;4111;50.972;7.072;2023-02-15T03:58:44;102339.16;;;3.29;86.83
8140;BME280;4111;50.972;7.072;2023-02-15T04:01:36;102338.00;;;3.31;87.02
8140;BME280;4111;50.972;7.072;2023-02-15T04:04:26;102335.19;;;3.41;86.68
8140;BME280;4111;50.972;7.072;2023-02-15T04:06:54;102332.31;;;3.34;86.95
8140;BME280;4111;50.972;7.072;2023-02-15T04:09:21;102342.78;;;3.46;86.48
8140;BME280;4111;50.972;7.072;2023-02-15T04:12:06;102347.09;;;3.38;86.33
8140;BME280;4111;50.972;7.072;2023-02-15T04:14:33;102355.53;;;3.44;85.86
8140;BME280;4111;50.972;7.072;2023-02-15T04:17:17;102349.75;;;3.30;85.92
8140;BME280;4111;50.972;7.072;2023-02-15T04:19:44;102355.75;;;3.24;86.27
8140;BME280;4111;50.972;7.072;2023-02-15T04:22:29;102349.53;;;3.24;86.23
8140;BME280;4111;50.972;7.072;2023-02-15T04:25:14;102351.63;;;3.12;86.65
8140;BME280;4111;50.972;7.072;2023-02-15T04:27:44;102357.63;;;3.06;86.73
8140;BME280;4111;50.972;7.072;2023-02-15T04:30:12;102342.88;;;3.10;86.92
8140;BME280;4111;50.972;7.072;2023-02-15T04:32:39;102348.75;;;3.05;86.65
8140;BME280;4111;50.972;7.072;2023-02-15T04:35:06;102345.84;;;2.98;87.04
8140;BME280;4111;50.972;7.072;2023-02-15T04:37:33;102346.25;;;3.12;86.68
8140;BME280;4111;50.972;7.072;2023-02-15T04:40:00;102340.94;;;2.94;86.62
8140;BME280;4111;50.972;7.072;2023-02-15T04:42:27;102337.63;;;3.00;86.72
8140;BME280;4111;50.972;7.072;2023-02-15T04:44:54;102338.78;;;2.97;86.33
8140;BME280;4111;50.972;7.072;2023-02-15T04:47:21;102327.63;;;2.84;86.42
8140;BME280;4111;50.972;7.072;2023-02-15T04:49:48;102330.25;;;2.76;86.98
8140;BME280;4111;50.972;7.072;2023-02-15T04:52:14;102329.19;;;2.69;87.27
8140;BME280;4111;50.972;7.072;2023-02-15T04:54:41;102330.56;;;2.73;87.17
8140;BME280;4111;50.972;7.072;2023-02-15T04:57:07;102333.06;;;2.74;87.44
8140;BME280;4111;50.972;7.072;2023-02-15T04:59:34;102324.34;;;2.72;87.66
8140;BME280;4111;50.972;7.072;2023-02-15T05:02:00;102326.88;;;2.74;87.74
8140;BME280;4111;50.972;7.072;2023-02-15T05:04:27;102324.25;;;2.82;87.49
8140;BME280;4111;50.972;7.072;2023-02-15T05:06:53;102323.13;;;2.85;87.25
8140;BME280;4111;50.972;7.072;2023-02-15T05:09:19;102328.56;;;2.75;87.51
8140;BME280;4111;50.972;7.072;2023-02-15T05:11:46;102338.28;;;2.76;87.62
8140;BME280;4111;50.972;7.072;2023-02-15T05:14:12;102324.66;;;2.69;87.51
8140;BME280;4111;50.972;7.072;2023-02-15T05:16:39;102323.97;;;2.67;87.74
8140;BME280;4111;50.972;7.072;2023-02-15T05:19:06;102327.56;;;2.76;87.69
8140;BME280;4111;50.972;7.072;2023-02-15T05:21:32;102323.56;;;2.80;87.20
8140;BME280;4111;50.972;7.072;2023-02-15T05:23:59;102322.03;;;2.77;87.65
8140;BME280;4111;50.972;7.072;2023-02-15T05:26:25;102323.22;;;2.75;87.34
8140;BME280;4111;50.972;7.072;2023-02-15T05:29:11;102320.81;;;2.72;87.30
8140;BME280;4111;50.972;7.072;2023-02-15T05:31:37;102325.84;;;2.67;87.69
8140;BME280;4111;50.972;7.072;2023-02-15T05:34:04;102317.31;;;2.71;87.76
8140;BME280;4111;50.972;7.072;2023-02-15T05:36:30;102316.78;;;2.68;87.94
8140;BME280;4111;50.972;7.072;2023-02-15T05:38:57;102324.19;;;2.74;88.07
8140;BME280;4111;50.972;7.072;2023-02-15T05:41:23;102320.88;;;2.80;87.88
8140;BME280;4111;50.972;7.072;2023-02-15T05:43:51;102331.59;;;2.80;88.10
8140;BME280;4111;50.972;7.072;2023-02-15T05:46:18;102327.09;;;2.81;87.69
8140;BME280;4111;50.972;7.072;2023-02-15T05:48:44;102326.13;;;2.64;87.29
8140;BME280;4111;50.972;7.072;2023-02-15T05:51:12;102330.13;;;2.60;87.95
8140;BME280;4111;50.972;7.072;2023-02-15T05:53:40;102323.16;;;2.67;87.75
8140;BME280;4111;50.972;7.072;2023-02-15T05:56:10;102314.03;;;2.60;87.61
8140;BME280;4111;50.972;7.072;2023-02-15T05:58:39;102319.94;;;2.63;88.06
8140;BME280;4111;50.972;7.072;2023-02-15T06:01:10;102320.84;;;2.54;87.83
8140;BME280;4111;50.972;7.072;2023-02-15T06:03:38;102319.00;;;2.36;87.49
8140;BME280;4111;50.972;7.072;2023-02-15T06:06:05;102321.53;;;2.38;88.01
8140;BME280;4111;50.972;7.072;2023-02-15T06:08:34;102310.53;;;2.41;88.18
8140;BME280;4111;50.972;7.072;2023-02-15T06:11:00;102314.88;;;2.42;88.35
8140;BME280;4111;50.972;7.072;2023-02-15T06:13:27;102315.88;;;2.41;88.66
8140;BME280;4111;50.972;7.072;2023-02-15T06:15:54;102320.78;;;2.46;88.60
8140;BME280;4111;50.972;7.072;2023-02-15T06:18:20;102323.75;;;2.43;88.56
8140;BME280;4111;50.972;7.072;2023-02-15T06:20:47;102323.59;;;2.44;88.97
8140;BME280;4111;50.972;7.072;2023-02-15T06:23:14;102318.88;;;2.38;88.77
8140;BME280;4111;50.972;7.072;2023-02-15T06:25:41;102319.94;;;2.45;89.46
8140;BME280;4111;50.972;7.072;2023-02-15T06:28:07;102322.84;;;2.52;89.03
8140;BME280;4111;50.972;7.072;2023-02-15T06:30:34;102318.31;;;2.52;89.21
8140;BME280;4111;50.972;7.072;2023-02-15T06:33:00;102321.84;;;2.35;89.16
8140;BME280;4111;50.972;7.072;2023-02-15T06:35:27;102319.88;;;2.37;89.80
8140;BME280;4111;50.972;7.072;2023-02-15T06:37:53;102321.53;;;2.38;89.27
8140;BME280;4111;50.972;7.072;2023-02-15T06:40:20;102326.00;;;2.47;89.33
8140;BME280;4111;50.972;7.072;2023-02-15T06:42:46;102330.97;;;2.42;89.38
8140;BME280;4111;50.972;7.072;2023-02-15T06:45:13;102332.66;;;2.43;89.57
8140;BME280;4111;50.972;7.072;2023-02-15T06:47:39;102327.66;;;2.48;89.77
8140;BME280;4111;50.972;7.072;2023-02-15T06:50:07;102333.84;;;2.49;89.42
8140;BME280;4111;50.972;7.072;2023-02-15T06:52:34;102330.34;;;2.48;89.66
8140;BME280;4111;50.972;7.072;2023-02-15T06:55:00;102334.66;;;2.41;90.02
8140;BME280;4111;50.972;7.072;2023-02-15T06:57:27;102335.34;;;2.43;89.92
8140;BME280;4111;50.972;7.072;2023-02-15T06:59:53;102332.13;;;2.57;90.49
8140;BME280;4111;50.972;7.072;2023-02-15T07:02:20;102333.47;;;2.62;89.99
8140;BME280;4111;50.972;7.072;2023-02-15T07:04:46;102331.50;;;2.64;89.97
8140;BME280;4111;50.972;7.072;2023-02-15T07:07:13;102330.88;;;2.70;89.89
8140;BME280;4111;50.972;7.072;2023-02-15T07:09:39;102326.19;;;2.72;89.77
8140;BME280;4111;50.972;7.072;2023-02-15T07:12:06;102333.94;;;2.75;89.80
8140;BME280;4111;50.972;7.072;2023-02-15T07:14:52;102323.31;;;2.91;90.07
8140;BME280;4111;50.972;7.072;2023-02-15T07:17:18;102328.88;;;2.98;90.15
8140;BME280;4111;50.972;7.072;2023-02-15T07:20:08;102323.75;;;3.05;90.50
8140;BME280;4111;50.972;7.072;2023-02-15T07:22:35;102327.16;;;3.15;90.11
8140;BME280;4111;50.972;7.072;2023-02-15T07:25:07;102326.69;;;3.20;89.30
8140;BME280;4111;50.972;7.072;2023-02-15T07:27:34;102321.84;;;3.23;88.93
8140;BME280;4111;50.972;7.072;2023-02-15T07:30:01;102319.84;;;3.25;89.22
8140;BME280;4111;50.972;7.072;2023-02-15T07:32:31;102321.31;;;3.46;88.97
8140;BME280;4111;50.972;7.072;2023-02-15T07:34:59;102320.31;;;3.55;88.62
8140;BME280;4111;50.972;7.072;2023-02-15T07:37:26;102304.88;;;3.57;88.30
8140;BME280;4111;50.972;7.072;2023-02-15T07:39:53;102306.78;;;3.73;88.56
8140;BME280;4111;50.972;7.072;2023-02-15T07:42:19;102300.72;;;3.63;88.21
8140;BME280;4111;50.972;7.072;2023-02-15T07:44:47;102287.41;;;3.53;87.49
8140;BME280;4111;50.972;7.072;2023-02-15T07:47:14;102286.56;;;3.52;87.39
8140;BME280;4111;50.972;7.072;2023-02-15T07:49:40;102284.38;;;3.48;87.45
8140;BME280;4111;50.972;7.072;2023-02-15T07:52:06;102278.34;;;3.46;87.44
8140;BME280;4111;50.972;7.072;2023-02-15T07:54:33;102266.25;;;3.42;87.32
8140;BME280;4111;50.972;7.072;2023-02-15T07:57:00;102272.63;;;3.49;87.22
8140;BME280;4111;50.972;7.072;2023-02-15T07:59:27;102269.44;;;3.53;87.23
8140;BME280;4111;50.972;7.072;2023-02-15T08:01:53;102269.44;;;3.53;87.18
8140;BME280;4111;50.972;7.072;2023-02-15T08:04:23;102268.63;;;3.61;86.89
8140;BME280;4111;50.972;7.072;2023-02-15T08:06:52;102268.84;;;3.68;86.81
8140;BME280;4111;50.972;7.072;2023-02-15T08:09:19;102261.94;;;3.65;86.68
8140;BME280;4111;50.972;7.072;2023-02-15T08:11:47;102272.72;;;3.73;86.44
8140;BME280;4111;50.972;7.072;2023-02-15T08:14:18;102264.34;;;3.85;86.58
8140;BME280;4111;50.972;7.072;2023-02-15T08:16:54;102263.72;;;3.99;86.29
8140;BME280;4111;50.972;7.072;2023-02-15T08:19:29;102266.06;;;4.02;86.02
8140;BME280;4111;50.972;7.072;2023-02-15T08:22:03;102270.59;;;4.10;86.03
8140;BME280;4111;50.972;7.072;2023-02-15T08:24:33;102261.72;;;4.34;85.69
8140;BME280;4111;50.972;7.072;2023-02-15T08:27:00;102266.94;;;4.44;85.20
8140;BME280;4111;50.972;7.072;2023-02-15T08:29:31;102258.69;;;4.45;84.61
8140;BME280;4111;50.972;7.072;2023-02-15T08:32:01;102258.38;;;4.48;84.10
8140;BME280;4111;50.972;7.072;2023-02-15T08:34:33;102255.00;;;4.54;83.85
8140;BME280;4111;50.972;7.072;2023-02-15T08:37:00;102258.66;;;4.70;83.61
8140;BME280;4111;50.972;7.072;2023-02-15T08:39:27;102256.63;;;4.72;83.25
8140;BME280;4111;50.972;7.072;2023-02-15T08:41:54;102256.16;;;4.76;82.63
8140;BME280;4111;50.972;7.072;2023-02-15T08:44:21;102260.97;;;4.89;82.44
8140;BME280;4111;50.972;7.072;2023-02-15T08:46:49;102251.22;;;4.96;82.17
8140;BME280;4111;50.972;7.072;2023-02-15T08:49:20;102243.63;;;5.08;81.56
8140;BME280;4111;50.972;7.072;2023-02-15T08:51:48;102247.13;;;5.09;80.90
8140;BME280;4111;50.972;7.072;2023-02-15T08:54:17;102241.25;;;5.13;80.50
8140;BME280;4111;50.972;7.072;2023-02-15T08:56:44;102237.00;;;5.27;80.00
8140;BME280;4111;50.972;7.072;2023-02-15T08:59:14;102236.97;;;5.35;79.59
8140;BME280;4111;50.972;7.072;2023-02-15T09:01:40;102233.84;;;5.55;79.71
8140;BME280;4111;50.972;7.072;2023-02-15T09:04:07;102230.06;;;5.64;78.80
8140;BME280;4111;50.972;7.072;2023-02-15T09:06:38;102236.03;;;5.83;78.57
8140;BME280;4111;50.972;7.072;2023-02-15T09:09:06;102234.66;;;5.87;77.97
8140;BME280;4111;50.972;7.072;2023-02-15T09:11:36;102236.97;;;5.90;77.47
8140;BME280;4111;50.972;7.072;2023-02-15T09:14:13;102247.72;;;6.06;77.73
8140;BME280;4111;50.972;7.072;2023-02-15T09:16:42;102245.13;;;6.13;77.04
8140;BME280;4111;50.972;7.072;2023-02-15T09:19:10;102242.91;;;6.17;76.59
8140;BME280;4111;50.972;7.072;2023-02-15T09:21:38;102248.66;;;6.37;76.20
8140;BME280;4111;50.972;7.072;2023-02-15T09:24:10;102236.88;;;6.52;76.26
8140;BME280;4111;50.972;7.072;2023-02-15T09:26:39;102238.97;;;6.80;76.10
8140;BME280;4111;50.972;7.072;2023-02-15T09:29:10;102233.66;;;6.87;74.69
8140;BME280;4111;50.972;7.072;2023-02-15T09:31:42;102225.00;;;6.91;74.39
8140;BME280;4111;50.972;7.072;2023-02-15T09:34:11;102230.69;;;6.97;74.01
8140;BME280;4111;50.972;7.072;2023-02-15T09:36:39;102235.25;;;7.11;73.98
8140;BME280;4111;50.972;7.072;2023-02-15T09:48:06;102249.19;;;7.59;71.84
8140;BME280;4111;50.972;7.072;2023-02-15T09:51:06;102244.22;;;7.63;71.25
8140;BME280;4111;50.972;7.072;2023-02-15T09:56:42;102247.59;;;7.65;70.30
8140;BME280;4111;50.972;7.072;2023-02-15T10:04:36;102246.66;;;7.94;69.68
8140;BME280;4111;50.972;7.072;2023-02-15T10:18:20;102227.19;;;8.48;68.16
8140;BME280;4111;50.972;7.072;2023-02-15T10:26:44;102222.50;;;8.92;67.35
8140;BME280;4111;50.972;7.072;2023-02-15T10:29:31;102217.34;;;9.04;66.96
8140;BME280;4111;50.972;7.072;2023-02-15T10:32:15;102222.06;;;9.23;66.74
8140;BME280;4111;50.972;7.072;2023-02-15T10:38:03;102215.22;;;9.34;66.35
8140;BME280;4111;50.972;7.072;2023-02-15T10:43:39;102218.25;;;9.18;64.87
8140;BME280;4111;50.972;7.072;2023-02-15T10:57:02;102209.91;;;9.67;64.38
8140;BME280;4111;50.972;7.072;2023-02-15T10:59:39;102206.59;;;9.72;63.98
8140;BME280;4111;50.972;7.072;2023-02-15T11:07:20;102192.69;;;10.15;64.04
8140;BME280;4111;50.972;7.072;2023-02-15T11:09:57;102188.28;;;10.14;63.30
8140;BME280;4111;50.972;7.072;2023-02-15T11:12:28;102193.94;;;10.26;63.44
8140;BME280;4111;50.972;7.072;2023-02-15T11:15:33;102180.78;;;10.29;62.81
8140;BME280;4111;50.972;7.072;2023-02-15T11:18:09;102178.25;;;10.28;62.87
8140;BME280;4111;50.972;7.072;2023-02-15T11:20:45;102187.47;;;10.34;62.35
8140;BME280;4111;50.972;7.072;2023-02-15T11:23:17;102172.00;;;10.47;62.26
8140;BME280;4111;50.972;7.072;2023-02-15T11:26:11;102165.72;;;10.60;61.83
8140;BME280;4111;50.972;7.072;2023-02-15T11:28:37;102165.28;;;10.77;61.81
8140;BME280;4111;50.972;7.072;2023-02-15T11:31:20;102159.16;;;10.95;61.80
8140;BME280;4111;50.972;7.072;2023-02-15T11:33:52;102159.75;;;11.10;61.68
8140;BME280;4111;50.972;7.072;2023-02-15T11:36:36;102153.00;;;11.19;61.49
8140;BME280;4111;50.972;7.072;2023-02-15T11:39:12;102145.69;;;11.20;60.66
8140;BME280;4111;50.972;7.072;2023-02-15T11:41:44;102141.28;;;11.19;60.31
8140;BME280;4111;50.972;7.072;2023-02-15T11:44:22;102142.53;;;11.23;60.36
8140;BME280;4111;50.972;7.072;2023-02-15T11:46:49;102148.38;;;11.26;59.95
8140;BME280;4111;50.972;7.072;2023-02-15T11:49:27;102150.22;;;11.32;60.01
8140;BME280;4111;50.972;7.072;2023-02-15T11:51:55;102149.19;;;11.34;59.70
8140;BME280;4111;50.972;7.072;2023-02-15T11:54:28;102141.72;;;11.54;60.10
8140;BME280;4111;50.972;7.072;2023-02-15T11:57:00;102141.03;;;11.65;59.60
8140;BME280;4111;50.972;7.072;2023-02-15T11:59:34;102142.41;;;11.75;58.54
8140;BME280;4111;50.972;7.072;2023-02-15T12:02:15;102131.66;;;11.93;58.69
8140;BME280;4111;50.972;7.072;2023-02-15T12:04:47;102128.66;;;12.01;58.27
8140;BME280;4111;50.972;7.072;2023-02-15T12:09:58;102118.09;;;12.12;58.16
8140;BME280;4111;50.972;7.072;2023-02-15T12:12:29;102112.25;;;12.08;57.93
8140;BME280;4111;50.972;7.072;2023-02-15T12:15:01;102112.56;;;12.18;57.72
8140;BME280;4111;50.972;7.072;2023-02-15T12:17:30;102112.94;;;12.28;57.49
8140;BME280;4111;50.972;7.072;2023-02-15T12:20:04;102103.63;;;12.36;57.30
8140;BME280;4111;50.972;7.072;2023-02-15T12:22:36;102102.25;;;12.45;57.06
8140;BME280;4111;50.972;7.072;2023-02-15T12:25:21;102092.56;;;12.49;56.99
8140;BME280;4111;50.972;7.072;2023-02-15T12:27:48;102092.13;;;12.71;57.00
8140;BME280;4111;50.972;7.072;2023-02-15T12:30:21;102093.34;;;12.94;56.75
8140;BME280;4111;50.972;7.072;2023-02-15T12:32:53;102088.50;;;12.96;55.66
8140;BME280;4111;50.972;7.072;2023-02-15T12:35:31;102084.84;;;13.02;55.27
8140;BME280;4111;50.972;7.072;2023-02-15T12:40:56;102075.63;;;13.33;55.02
8140;BME280;4111;50.972;7.072;2023-02-15T12:43:31;102071.63;;;13.47;54.40
8140;BME280;4111;50.972;7.072;2023-02-15T12:46:21;102067.00;;;13.48;53.62
8140;BME280;4111;50.972;7.072;2023-02-15T12:51:57;102056.00;;;13.78;53.11
8140;BME280;4111;50.972;7.072;2023-02-15T12:54:40;102053.53;;;14.00;53.13
8140;BME280;4111;50.972;7.072;2023-02-15T12:59:53;102046.41;;;14.23;52.93
8140;BME280;4111;50.972;7.072;2023-02-15T13:02:26;102053.75;;;14.34;52.81
8140;BME280;4111;50.972;7.072;2023-02-15T13:04:53;102049.72;;;14.25;52.29
8140;BME280;4111;50.972;7.072;2023-02-15T13:07:21;102049.25;;;14.28;52.61
8140;BME280;4111;50.972;7.072;2023-02-15T13:09:49;102052.00;;;14.16;51.91
8140;BME280;4111;50.972;7.072;2023-02-15T13:12:24;102033.25;;;14.20;51.79
8140;BME280;4111;50.972;7.072;2023-02-15T13:14:53;102036.03;;;14.37;52.05
8140;BME280;4111;50.972;7.072;2023-02-15T13:17:25;102038.41;;;14.33;51.72
8140;BME280;4111;50.972;7.072;2023-02-15T13:19:59;102031.31;;;14.32;51.55
8140;BME280;4111;50.972;7.072;2023-02-15T13:22:44;102036.53;;;14.34;51.29
8140;BME280;4111;50.972;7.072;2023-02-15T13:25:21;102029.81;;;14.53;51.43
8140;BME280;4111;50.972;7.072;2023-02-15T13:27:52;102028.53;;;14.56;51.41
8140;BME280;4111;50.972;7.072;2023-02-15T13:33:03;102011.69;;;14.35;50.65
8140;BME280;4111;50.972;7.072;2023-02-15T13:39:05;102013.84;;;14.33;50.91
8140;BME280;4111;50.972;7.072;2023-02-15T13:41:45;102002.00;;;14.68;50.89
8140;BME280;4111;50.972;7.072;2023-02-15T13:47:26;101996.75;;;14.78;50.17
8140;BME280;4111;50.972;7.072;2023-02-15T13:52:45;101989.75;;;15.16;49.55
8140;BME280;4111;50.972;7.072;2023-02-15T13:55:26;102000.50;;;15.35;49.21
8140;BME280;4111;50.972;7.072;2023-02-15T14:08:54;101961.03;;;16.48;46.62
8140;BME280;4111;50.972;7.072;2023-02-15T14:11:40;101961.44;;;17.11;46.47
8140;BME280;4111;50.972;7.072;2023-02-15T14:17:12;101959.44;;;18.13;45.23
8140;BME280;4111;50.972;7.072;2023-02-15T14:19:45;101962.03;;;18.40;44.66
8140;BME280;4111;50.972;7.072;2023-02-15T14:22:35;101959.88;;;17.90;43.33
8140;BME280;4111;50.972;7.072;2023-02-15T14:25:27;101952.88;;;17.77;43.45
8140;BME280;4111;50.972;7.072;2023-02-15T14:28:08;101951.78;;;17.78;43.50
8140;BME280;4111;50.972;7.072;2023-02-15T14:30:43;101949.84;;;18.21;43.51
8140;BME280;4111;50.972;7.072;2023-02-15T14:35:41;101962.59;;;18.42;43.31
8140;BME280;4111;50.972;7.072;2023-02-15T14:38:21;101953.78;;;18.40;42.85
8140;BME280;4111;50.972;7.072;2023-02-15T14:41:06;101957.81;;;18.17;42.62
8140;BME280;4111;50.972;7.072;2023-02-15T14:43:46;101956.25;;;17.84;42.85
8140;BME280;4111;50.972;7.072;2023-02-15T14:46:47;101961.59;;;17.63;43.28
8140;BME280;4111;50.972;7.072;2023-02-15T14:49:20;101959.66;;;17.27;43.16
8140;BME280;4111;50.972;7.072;2023-02-15T14:56:43;101962.28;;;16.62;44.40
8140;BME280;4111;50.972;7.072;2023-02-15T15:02:15;101952.25;;;16.45;45.19
8140;BME280;4111;50.972;7.072;2023-02-15T15:04:52;101960.28;;;16.30;45.52
8140;BME280;4111;50.972;7.072;2023-02-15T15:07:38;101953.81;;;15.58;45.88
8140;BME280;4111;50.972;7.072;2023-02-15T15:12:48;101960.09;;;15.08;47.48
8140;BME280;4111;50.972;7.072;2023-02-15T15:18:03;101960.84;;;14.75;48.23
8140;BME280;4111;50.972;7.072;2023-02-15T15:20:40;101955.59;;;14.56;48.91
8140;BME280;4111;50.972;7.072;2023-02-15T15:25:57;101950.44;;;14.07;49.81
8140;BME280;4111;50.972;7.072;2023-02-15T15:45:54;101954.47;;;13.22;52.38
8140;BME280;4111;50.972;7.072;2023-02-15T15:48:35;101960.97;;;13.09;52.92
8140;BME280;4111;50.972;7.072;2023-02-15T15:51:23;101963.75;;;12.91;53.42
8140;BME280;4111;50.972;7.072;2023-02-15T15:53:54;101964.59;;;12.92;53.82
8140;BME280;4111;50.972;7.072;2023-02-15T15:56:25;101959.59;;;12.88;53.74
8140;BME280;4111;50.972;7.072;2023-02-15T15:58:57;101952.75;;;12.67;54.30
8140;BME280;4111;50.972;7.072;2023-02-15T16:01:27;101956.63;;;12.60;54.68
8140;BME280;4111;50.972;7.072;2023-02-15T16:03:57;101964.81;;;12.60;54.26
8140;BME280;4111;50.972;7.072;2023-02-15T16:08:56;101964.66;;;12.24;55.49
8140;BME280;4111;50.972;7.072;2023-02-15T16:11:27;101955.13;;;12.15;55.95
8140;BME280;4111;50.972;7.072;2023-02-15T16:13:55;101951.56;;;12.15;55.93